Time;durP1;ratioP1;P1;durP2;ratioP2;P2;SDS_P1;SDS_P2;PMS_P1;PMS_P2;Temp;Humidity;BMP_temperature;BMP_pressure;BME280_temperature;BME280_humidity;BME280_pressure;Samples;Min_cycle;Max_cycle;Signal;HPM_P1;HPM_P2
2022/10/23 00:00:47;;;;;;;0.00;0.00;;;17.00;94.00;;;;;;4026471;29;20508;-59
2022/10/23 00:03:27;;;;;;;0.20;0.20;;;17.00;94.00;;;;;;4018473;29;20167;-59
2022/10/23 00:06:10;;;;;;;0.00;0.00;;;17.00;94.10;;;;;;4017195;29;20060;-59
2022/10/23 00:08:52;;;;;;;0.00;0.00;;;17.00;94.00;;;;;;4031911;29;20063;-58
2022/10/23 00:11:33;;;;;;;0.00;0.00;;;17.00;94.00;;;;;;4030802;29;20519;-59
2022/10/23 00:14:16;;;;;;;0.00;0.00;;;17.00;94.00;;;;;;4017116;29;20093;-59
2022/10/23 00:16:57;;;;;;;0.00;0.00;;;17.00;94.00;;;;;;4001832;29;20102;-58
2022/10/23 00:19:38;;;;;;;0.00;0.00;;;17.00;94.00;;;;;;4010152;29;20104;-59
2022/10/23 00:22:20;;;;;;;0.32;0.32;;;17.00;94.00;;;;;;4032102;29;20124;-59
2022/10/23 00:25:01;;;;;;;0.00;0.00;;;17.00;94.00;;;;;;4016655;29;20068;-58
2022/10/23 00:27:42;;;;;;;0.00;0.00;;;17.00;94.10;;;;;;4016233;29;20129;-58
2022/10/23 00:30:23;;;;;;;0.10;0.10;;;17.00;94.00;;;;;;4023563;29;20060;-59
2022/10/23 00:33:04;;;;;;;0.10;0.10;;;17.00;94.00;;;;;;4031717;29;20107;-59
2022/10/23 00:35:45;;;;;;;0.00;0.00;;;17.00;94.00;;;;;;4032174;29;20132;-59
2022/10/23 00:38:27;;;;;;;0.00;0.00;;;17.00;94.00;;;;;;4031524;29;20089;-59
2022/10/23 00:41:12;;;;;;;0.00;0.00;;;16.90;94.00;;;;;;4031633;29;20289;-59
2022/10/23 00:44:02;;;;;;;0.00;0.00;;;16.90;94.00;;;;;;4020817;29;20700;-59
2022/10/23 00:46:43;;;;;;;0.00;0.00;;;16.90;94.00;;;;;;4014725;29;20061;-59
2022/10/23 00:49:24;;;;;;;0.10;0.10;;;16.90;94.00;;;;;;4015402;29;20081;-59
2022/10/23 00:52:07;;;;;;;;;;;16.90;94.20;;;;;;4016891;29;20060;-58
2022/10/23 00:54:49;;;;;;;0.00;0.00;;;16.90;94.00;;;;;;4017117;29;20015;-59
2022/10/23 00:57:31;;;;;;;0.00;0.00;;;16.90;94.00;;;;;;4016668;29;20161;-59
2022/10/23 01:00:15;;;;;;;0.00;0.00;;;16.90;94.10;;;;;;4015931;29;20072;-59
2022/10/23 01:02:57;;;;;;;0.05;0.05;;;16.90;94.10;;;;;;4015041;29;20060;-59
2022/10/23 01:05:45;;;;;;;0.55;0.55;;;16.90;94.10;;;;;;4016176;29;20055;-59
2022/10/23 01:08:37;;;;;;;0.00;0.00;;;16.90;94.10;;;;;;4004390;29;20109;-59
2022/10/23 01:11:25;;;;;;;0.00;0.00;;;16.90;94.20;;;;;;4015730;29;20065;-58
2022/10/23 01:14:15;;;;;;;0.00;0.00;;;16.90;94.10;;;;;;4016049;29;20185;-60
2022/10/23 01:17:04;;;;;;;0.00;0.00;;;16.90;94.20;;;;;;4016023;29;20060;-60
2022/10/23 01:20:01;;;;;;;0.10;0.10;;;16.90;94.10;;;;;;4003521;29;20605;-60
2022/10/23 01:22:59;;;;;;;0.73;0.73;;;16.90;94.20;;;;;;4004574;29;20162;-60
2022/10/23 01:25:59;;;;;;;0.20;0.20;;;16.90;94.20;;;;;;4004261;29;20598;-60
2022/10/23 01:28:47;;;;;;;0.00;0.00;;;16.90;94.20;;;;;;4004140;29;20059;-60
2022/10/23 01:31:33;;;;;;;0.00;0.00;;;16.90;94.20;;;;;;4004110;29;20516;-60
2022/10/23 01:34:19;;;;;;;0.00;0.00;;;16.90;94.20;;;;;;4003994;29;20080;-60
2022/10/23 01:37:02;;;;;;;0.00;0.00;;;16.80;94.20;;;;;;4014819;29;20064;-60
2022/10/23 01:39:49;;;;;;;0.00;0.00;;;16.90;94.20;;;;;;3999213;29;20060;-60
2022/10/23 01:42:36;;;;;;;0.00;0.00;;;16.80;94.60;;;;;;4004402;29;20118;-60
2022/10/23 01:45:25;;;;;;;4.28;1.02;;;16.80;94.20;;;;;;3992043;29;20164;-60
2022/10/23 01:48:08;;;;;;;0.10;0.10;;;16.80;94.20;;;;;;4006878;29;20125;-60
2022/10/23 01:50:50;;;;;;;0.00;0.00;;;16.80;94.20;;;;;;3996834;29;20092;-60
2022/10/23 01:53:37;;;;;;;0.00;0.00;;;16.80;94.20;;;;;;4007148;29;20060;-60
2022/10/23 01:56:22;;;;;;;0.03;0.03;;;16.80;94.20;;;;;;4007361;29;20056;-60
2022/10/23 01:59:06;;;;;;;0.00;0.00;;;16.80;94.20;;;;;;4017331;29;20060;-60
2022/10/23 02:01:56;;;;;;;0.00;0.00;;;16.80;94.20;;;;;;4011834;29;20104;-60
2022/10/23 02:04:40;;;;;;;0.00;0.00;;;16.80;94.20;;;;;;4033920;29;20108;-60
2022/10/23 02:07:21;;;;;;;0.00;0.00;;;16.80;94.30;;;;;;4022709;29;20072;-60
2022/10/23 02:10:05;;;;;;;0.00;0.00;;;16.80;94.20;;;;;;4033251;29;20136;-60
2022/10/23 02:12:54;;;;;;;0.00;0.00;;;16.80;94.30;;;;;;4022520;29;20056;-61
2022/10/23 02:15:39;;;;;;;0.38;0.38;;;16.80;94.20;;;;;;4033860;29;20059;-60
2022/10/23 02:18:33;;;;;;;0.00;0.00;;;16.80;94.30;;;;;;4021821;29;20064;-61
2022/10/23 02:21:17;;;;;;;0.00;0.00;;;16.80;94.30;;;;;;4022117;29;20056;-60
2022/10/23 02:24:02;;;;;;;0.03;0.03;;;16.80;94.30;;;;;;4033633;29;20561;-60
2022/10/23 02:26:51;;;;;;;0.00;0.00;;;16.70;94.30;;;;;;4033317;29;20060;-61
2022/10/23 02:29:37;;;;;;;0.00;0.00;;;16.70;94.30;;;;;;4029615;29;20064;-61
2022/10/23 02:32:20;;;;;;;0.00;0.00;;;16.70;94.30;;;;;;4022004;29;20193;-60
2022/10/23 02:35:03;;;;;;;0.00;0.00;;;16.70;94.30;;;;;;4033493;29;20602;-60
2022/10/23 02:37:51;;;;;;;0.00;0.00;;;16.70;94.60;;;;;;4026941;29;20455;-60
2022/10/23 02:40:38;;;;;;;0.08;0.08;;;16.70;94.30;;;;;;4021756;29;20063;-60
2022/10/23 02:43:27;;;;;;;0.00;0.00;;;16.70;94.30;;;;;;4033177;29;20047;-60
2022/10/23 02:46:14;;;;;;;0.00;0.00;;;16.70;94.30;;;;;;4010717;29;20536;-60
2022/10/23 02:49:07;;;;;;;0.00;0.00;;;16.70;94.30;;;;;;4031703;29;20516;-60
2022/10/23 02:52:00;;;;;;;0.00;0.00;;;16.70;94.30;;;;;;4010905;29;20197;-60
2022/10/23 02:55:04;;;;;;;0.00;0.00;;;16.70;94.30;;;;;;4021563;29;20064;-60
2022/10/23 02:58:07;;;;;;;0.13;0.13;;;16.70;94.30;;;;;;4017156;29;20072;-60
2022/10/23 03:00:55;;;;;;;0.00;0.00;;;16.70;94.30;;;;;;4032485;29;20073;-60
2022/10/23 03:03:42;;;;;;;0.00;0.00;;;16.70;94.30;;;;;;4021528;29;20060;-60
2022/10/23 03:06:23;;;;;;;0.00;0.00;;;16.70;94.30;;;;;;4032555;29;20055;-60
2022/10/23 03:09:08;;;;;;;0.20;0.20;;;16.70;94.30;;;;;;4032728;29;20189;-60
2022/10/23 03:11:48;;;;;;;0.00;0.00;;;16.60;94.30;;;;;;4033060;29;20071;-61
2022/10/23 03:14:29;;;;;;;0.00;0.00;;;16.60;94.30;;;;;;4021426;29;20268;-60
2022/10/23 03:17:10;;;;;;;0.00;0.00;;;16.60;94.30;;;;;;4007055;29;20133;-60
2022/10/23 03:19:51;;;;;;;0.25;0.25;;;16.60;94.30;;;;;;4032112;29;20063;-60
2022/10/23 03:22:31;;;;;;;0.00;0.00;;;16.60;94.30;;;;;;4033002;29;20393;-60
2022/10/23 03:25:14;;;;;;;;;;;16.60;94.30;;;;;;4021548;29;20052;-60
2022/10/23 03:27:55;;;;;;;0.00;0.00;;;16.60;94.30;;;;;;4021155;29;19935;-60
2022/10/23 03:30:36;;;;;;;0.00;0.00;;;16.60;94.30;;;;;;4032526;29;20146;-60
2022/10/23 03:33:17;;;;;;;0.00;0.00;;;16.60;94.30;;;;;;4021243;29;20156;-60
2022/10/23 03:35:57;;;;;;;0.00;0.00;;;16.60;94.40;;;;;;4019264;29;20621;-60
2022/10/23 03:38:38;;;;;;;1.03;1.03;;;16.60;94.40;;;;;;4021040;29;20052;-60
2022/10/23 03:41:20;;;;;;;0.00;0.00;;;16.60;94.40;;;;;;4021156;29;20136;-60
2022/10/23 03:44:01;;;;;;;0.20;0.20;;;16.60;94.40;;;;;;4032391;29;20488;-61
2022/10/23 03:46:42;;;;;;;0.30;0.30;;;16.60;94.50;;;;;;4032005;29;20165;-61
2022/10/23 03:49:23;;;;;;;0.00;0.00;;;16.60;94.50;;;;;;4020478;29;20457;-60
2022/10/23 03:52:04;;;;;;;0.00;0.00;;;16.60;94.50;;;;;;4032127;29;20194;-60
2022/10/23 03:54:45;;;;;;;0.20;0.20;;;16.60;94.40;;;;;;4031494;29;20059;-60
2022/10/23 03:57:27;;;;;;;0.03;0.03;;;16.60;94.40;;;;;;4026322;29;20420;-60
2022/10/23 04:00:09;;;;;;;0.03;0.03;;;16.60;94.50;;;;;;4019983;29;20492;-59
2022/10/23 04:02:58;;;;;;;0.00;0.00;;;16.60;94.50;;;;;;4018219;29;20069;-60
2022/10/23 04:05:41;;;;;;;0.00;0.00;;;16.60;94.40;;;;;;4004885;29;20077;-60
2022/10/23 04:08:22;;;;;;;0.30;0.25;;;16.50;94.40;;;;;;4005182;29;20141;-61
2022/10/23 04:11:06;;;;;;;0.00;0.00;;;16.50;94.50;;;;;;3975509;29;20057;-60
2022/10/23 04:13:56;;;;;;;0.00;0.00;;;16.50;94.50;;;;;;3999343;29;20500;-61
2022/10/23 04:16:37;;;;;;;0.00;0.00;;;16.50;94.50;;;;;;4005198;29;20060;-61
2022/10/23 04:19:18;;;;;;;0.03;0.03;;;16.50;94.50;;;;;;4005436;29;20067;-60
2022/10/23 04:21:59;;;;;;;0.00;0.00;;;16.50;94.50;;;;;;4005519;29;20190;-59
2022/10/23 04:24:44;;;;;;;0.00;0.00;;;16.50;94.50;;;;;;3998838;29;20192;-60
2022/10/23 04:27:29;;;;;;;0.38;0.38;;;16.50;94.50;;;;;;4004925;29;20281;-60
2022/10/23 04:30:12;;;;;;;0.10;0.10;;;16.50;94.50;;;;;;4005238;29;20048;-61
2022/10/23 04:32:53;;;;;;;0.25;0.25;;;16.50;94.50;;;;;;4004833;29;20059;-60
2022/10/23 04:35:34;;;;;;;0.00;0.00;;;16.50;94.50;;;;;;4016186;29;20056;-60
2022/10/23 04:38:15;;;;;;;0.28;0.28;;;16.50;94.90;;;;;;4016782;29;20053;-60
2022/10/23 04:40:56;;;;;;;0.00;0.00;;;16.50;94.50;;;;;;4015887;29;20533;-60
2022/10/23 04:43:38;;;;;;;0.00;0.00;;;16.50;94.50;;;;;;4010685;29;20125;-60
2022/10/23 04:46:20;;;;;;;0.60;0.60;;;16.50;94.50;;;;;;4004546;29;20056;-60
2022/10/23 04:49:01;;;;;;;0.20;0.20;;;16.50;94.50;;;;;;4004975;29;20385;-61
2022/10/23 04:52:00;;;;;;;0.10;0.10;;;16.50;94.50;;;;;;4004679;29;20561;-60
2022/10/23 04:55:06;;;;;;;0.00;0.00;;;16.50;94.50;;;;;;4000758;29;20057;-60
2022/10/23 04:58:15;;;;;;;0.38;0.38;;;16.50;94.50;;;;;;4000931;29;20057;-60
2022/10/23 05:00:58;;;;;;;0.10;0.10;;;16.50;94.50;;;;;;3993470;29;20073;-60
2022/10/23 05:03:41;;;;;;;0.00;0.00;;;16.50;94.50;;;;;;4020123;29;20126;-60
2022/10/23 05:06:22;;;;;;;0.17;0.17;;;16.50;94.80;;;;;;4019899;29;20397;-60
2022/10/23 05:09:12;;;;;;;0.10;0.10;;;16.50;94.80;;;;;;4020122;29;20084;-60
2022/10/23 05:12:08;;;;;;;0.20;0.20;;;16.50;94.50;;;;;;4019811;29;20064;-60
2022/10/23 05:14:49;;;;;;;;;;;16.50;94.50;;;;;;4018068;29;20504;-59
2022/10/23 05:17:34;;;;;;;0.00;0.00;;;16.50;94.50;;;;;;4034411;29;19930;-60
2022/10/23 05:20:20;;;;;;;0.00;0.00;;;16.40;94.40;;;;;;4008026;29;20068;-60
2022/10/23 05:23:02;;;;;;;0.00;0.00;;;16.40;94.40;;;;;;4011035;29;20060;-59
2022/10/23 05:25:43;;;;;;;0.47;0.47;;;16.40;94.40;;;;;;4022575;29;20511;-60
2022/10/23 05:28:30;;;;;;;0.00;0.00;;;16.40;94.40;;;;;;4022873;29;20067;-60
2022/10/23 05:31:12;;;;;;;0.00;0.00;;;16.40;94.40;;;;;;4022782;29;20051;-60
2022/10/23 05:33:56;;;;;;;0.10;0.10;;;16.40;94.40;;;;;;4022773;29;20436;-60
2022/10/23 05:36:38;;;;;;;0.00;0.00;;;16.40;94.40;;;;;;4022581;29;20208;-60
2022/10/23 05:39:20;;;;;;;0.00;0.00;;;16.40;94.40;;;;;;4022845;29;20052;-60
2022/10/23 05:42:01;;;;;;;0.00;0.00;;;16.40;94.80;;;;;;4034438;29;20056;-60
2022/10/23 05:44:42;;;;;;;0.43;0.43;;;16.40;94.40;;;;;;4015651;29;20056;-60
2022/10/23 05:47:33;;;;;;;0.00;0.00;;;16.40;94.40;;;;;;4022784;29;20064;-60
2022/10/23 05:50:43;;;;;;;0.10;0.10;;;16.40;94.40;;;;;;4033880;29;20083;-60
2022/10/23 05:53:32;;;;;;;0.00;0.00;;;16.40;94.40;;;;;;4022038;29;20064;-60
2022/10/23 05:56:24;;;;;;;0.00;0.00;;;16.40;94.40;;;;;;4022415;29;20056;-59
2022/10/23 05:59:15;;;;;;;0.05;0.05;;;16.40;94.40;;;;;;4022879;29;20052;-60
2022/10/23 06:02:11;;;;;;;0.00;0.00;;;16.40;94.40;;;;;;4022183;29;20112;-60
2022/10/23 06:05:03;;;;;;;0.00;0.00;;;16.40;94.40;;;;;;4022249;29;20079;-61
2022/10/23 06:08:13;;;;;;;0.00;0.00;;;16.40;94.60;;;;;;4033342;29;20512;-61
2022/10/23 06:10:56;;;;;;;0.65;0.65;;;16.40;94.80;;;;;;4022045;29;20060;-62
2022/10/23 06:13:36;;;;;;;0.13;0.13;;;16.40;94.70;;;;;;4033290;29;20052;-62
2022/10/23 06:16:20;;;;;;;0.00;0.00;;;16.40;94.60;;;;;;4007170;29;20060;-61
2022/10/23 06:19:01;;;;;;;0.80;0.73;;;16.40;94.50;;;;;;4007051;29;20064;-61
2022/10/23 06:21:41;;;;;;;0.10;0.10;;;16.40;94.50;;;;;;4008031;29;20056;-61
2022/10/23 06:24:25;;;;;;;0.00;0.00;;;16.40;94.50;;;;;;4021498;29;20063;-61
2022/10/23 06:27:13;;;;;;;0.15;0.15;;;16.40;94.50;;;;;;4021582;29;20056;-61
2022/10/23 06:29:55;;;;;;;0.73;0.50;;;16.40;94.50;;;;;;4016940;29;20089;-61
2022/10/23 06:32:36;;;;;;;;;;;16.30;94.50;;;;;;4014834;29;20057;-61
2022/10/23 06:35:24;;;;;;;0.00;0.00;;;16.30;94.90;;;;;;4007033;29;19935;-61
2022/10/23 06:38:05;;;;;;;0.15;0.15;;;16.30;94.50;;;;;;4028291;29;20720;-61
2022/10/23 06:40:53;;;;;;;0.00;0.00;;;16.30;94.60;;;;;;4022189;29;20055;-61
2022/10/23 06:43:42;;;;;;;0.00;0.00;;;16.30;94.60;;;;;;4012640;29;20120;-61
2022/10/23 06:47:01;;;;;;;0.10;0.10;;;16.30;94.60;;;;;;4032699;29;20552;-61
2022/10/23 06:50:14;;;;;;;0.00;0.00;;;16.30;94.60;;;;;;4021806;29;20068;-59
2022/10/23 06:52:57;;;;;;;0.50;0.50;;;16.30;95.50;;;;;;4021516;29;20063;-58
2022/10/23 06:55:39;;;;;;;0.65;0.65;;;16.30;96.90;;;;;;4033172;29;20148;-59
2022/10/23 06:58:22;;;;;;;3.72;2.05;;;16.30;97.20;;;;;;4021847;29;20056;-59
2022/10/23 07:01:16;;;;;;;0.22;0.22;;;16.30;97.60;;;;;;4023467;29;20121;-60
2022/10/23 07:03:58;;;;;;;0.00;0.00;;;16.30;97.60;;;;;;4001642;29;20053;-60
2022/10/23 07:06:39;;;;;;;0.22;0.22;;;16.30;97.60;;;;;;4006321;29;20060;-59
2022/10/23 07:09:20;;;;;;;3.88;1.27;;;16.30;97.20;;;;;;4006490;29;20060;-59
2022/10/23 07:12:04;;;;;;;0.08;0.08;;;16.30;96.90;;;;;;4017320;29;20056;-59
2022/10/23 07:14:56;;;;;;;0.00;0.00;;;16.30;96.60;;;;;;4005549;29;20053;-60
2022/10/23 07:17:38;;;;;;;1.30;1.20;;;16.30;96.40;;;;;;4005575;29;20109;-59
2022/10/23 07:20:19;;;;;;;0.17;0.17;;;16.30;96.20;;;;;;4017222;29;20206;-59
2022/10/23 07:23:01;;;;;;;0.00;0.00;;;16.30;96.10;;;;;;4003774;29;20064;-59
2022/10/23 07:25:48;;;;;;;5.05;1.45;;;16.30;95.90;;;;;;4005955;29;20073;-59
2022/10/23 07:28:34;;;;;;;0.00;0.00;;;16.30;95.80;;;;;;4005170;29;20053;-59
2022/10/23 07:31:15;;;;;;;0.00;0.00;;;16.20;95.60;;;;;;4005512;29;20129;-60
2022/10/23 07:34:24;;;;;;;0.00;0.00;;;16.20;95.50;;;;;;4000910;29;20186;-59
2022/10/23 07:37:23;;;;;;;0.22;0.22;;;16.20;95.50;;;;;;3998363;29;20072;-59
2022/10/23 07:40:04;;;;;;;1.97;1.77;;;16.20;95.30;;;;;;3990298;29;20835;-59
2022/10/23 07:42:49;;;;;;;0.00;0.00;;;16.20;95.40;;;;;;4004849;29;20060;-58
2022/10/23 07:45:30;;;;;;;;;;;16.20;95.40;;;;;;3999971;29;20417;-58
2022/10/23 07:48:18;;;;;;;0.10;0.10;;;16.20;95.70;;;;;;4005838;29;19935;-59
2022/10/23 07:51:15;;;;;;;0.20;0.20;;;16.20;95.20;;;;;;4012902;29;20208;-59
2022/10/23 07:54:02;;;;;;;0.22;0.20;;;16.20;95.60;;;;;;4005903;29;20057;-59
2022/10/23 07:57:02;;;;;;;0.03;0.03;;;16.20;95.20;;;;;;4016671;29;20064;-58
2022/10/23 07:59:53;;;;;;;0.05;0.05;;;16.10;95.50;;;;;;4003658;29;20060;-59
2022/10/23 08:02:36;;;;;;;0.00;0.00;;;16.10;95.10;;;;;;4004631;29;20060;-60
2022/10/23 08:05:20;;;;;;;0.00;0.00;;;16.10;95.20;;;;;;4020802;29;20130;-59
2022/10/23 08:08:08;;;;;;;0.03;0.03;;;16.10;95.20;;;;;;4020291;29;20507;-59
2022/10/23 08:10:54;;;;;;;0.00;0.00;;;16.10;95.20;;;;;;4020760;29;20052;-59
2022/10/23 08:13:40;;;;;;;0.10;0.10;;;16.20;95.20;;;;;;4005423;29;20049;-59
2022/10/23 08:16:21;;;;;;;0.20;0.20;;;16.10;95.20;;;;;;4017134;29;20060;-59
2022/10/23 08:19:37;;;;;;;0.00;0.00;;;16.10;95.20;;;;;;4030128;29;20527;-58
2022/10/23 08:22:18;;;;;;;0.22;0.22;;;16.20;95.20;;;;;;4012625;29;20208;-59
2022/10/23 08:25:02;;;;;;;4.20;1.15;;;16.10;95.20;;;;;;4005160;29;20135;-59
2022/10/23 08:27:43;;;;;;;0.70;0.70;;;16.10;95.20;;;;;;3990196;29;20053;-59
2022/10/23 08:30:26;;;;;;;0.30;0.30;;;16.10;95.10;;;;;;3990729;29;20549;-59
2022/10/23 08:33:07;;;;;;;0.00;0.00;;;16.10;95.10;;;;;;4031863;29;20189;-59
2022/10/23 08:35:49;;;;;;;0.00;0.00;;;16.20;95.10;;;;;;4007036;29;20053;-59
2022/10/23 08:38:37;;;;;;;0.10;0.10;;;16.20;95.20;;;;;;4005050;29;20056;-59
2022/10/23 08:41:29;;;;;;;0.10;0.10;;;16.20;95.10;;;;;;4017254;29;20133;-59
2022/10/23 08:44:23;;;;;;;0.20;0.20;;;16.20;95.10;;;;;;4014620;29;20056;-59
2022/10/23 08:47:10;;;;;;;0.08;0.08;;;16.20;95.10;;;;;;4004510;29;20059;-59
2022/10/23 08:50:14;;;;;;;0.00;0.00;;;16.20;95.10;;;;;;4010237;29;20491;-58
2022/10/23 08:53:02;;;;;;;1.00;1.00;;;16.20;95.10;;;;;;4027523;29;20507;-58
2022/10/23 08:55:46;;;;;;;0.00;0.00;;;16.20;95.10;;;;;;4031169;29;20401;-59
2022/10/23 08:58:34;;;;;;;1.65;1.55;;;16.20;95.00;;;;;;4022902;29;20110;-59
2022/10/23 09:01:30;;;;;;;0.00;0.00;;;16.20;95.00;;;;;;4031429;29;20064;-60
2022/10/23 09:04:13;;;;;;;0.00;0.00;;;16.20;95.00;;;;;;4030915;29;20067;-60
2022/10/23 09:07:06;;;;;;;0.08;0.08;;;16.20;95.10;;;;;;4019912;29;20068;-59
2022/10/23 09:10:00;;;;;;;0.20;0.20;;;16.30;95.40;;;;;;4030768;29;20500;-59
2022/10/23 09:12:42;;;;;;;0.08;0.08;;;16.50;94.70;;;;;;4016721;29;20057;-59
2022/10/23 09:15:30;;;;;;;0.10;0.10;;;16.70;94.30;;;;;;4031446;29;20560;-59
2022/10/23 09:18:13;;;;;;;0.00;0.00;;;16.90;93.90;;;;;;4015901;29;20428;-59
2022/10/23 09:20:54;;;;;;;0.00;0.00;;;17.10;93.50;;;;;;4031146;29;20133;-59
2022/10/23 09:23:35;;;;;;;0.20;0.20;;;17.30;93.10;;;;;;4003738;29;20061;-58
2022/10/23 09:26:18;;;;;;;0.80;0.65;;;17.50;92.70;;;;;;4016320;29;20052;-59
2022/10/23 09:29:14;;;;;;;0.22;0.22;;;17.70;92.30;;;;;;4016090;29;20561;-59
2022/10/23 09:31:58;;;;;;;0.03;0.03;;;17.90;92.20;;;;;;4016003;29;20085;-58
2022/10/23 09:34:51;;;;;;;0.00;0.00;;;18.10;91.50;;;;;;4029608;29;20049;-59
2022/10/23 09:37:34;;;;;;;0.00;0.00;;;18.20;91.30;;;;;;4029613;29;20112;-59
2022/10/23 09:40:18;;;;;;;0.00;0.00;;;18.30;91.20;;;;;;4031014;29;20060;-59
2022/10/23 09:43:13;;;;;;;0.00;0.00;;;18.30;91.10;;;;;;4019623;29;20185;-59
2022/10/23 09:45:59;;;;;;;0.00;0.00;;;18.30;91.10;;;;;;4019139;29;20231;-59
2022/10/23 09:48:41;;;;;;;3.13;2.28;;;18.20;91.20;;;;;;4008953;29;20527;-59
2022/10/23 09:51:22;;;;;;;0.00;0.00;;;18.20;91.20;;;;;;4015598;29;20132;-59
2022/10/23 09:54:03;;;;;;;0.00;0.00;;;18.20;91.30;;;;;;4004317;29;20107;-59
2022/10/23 09:56:48;;;;;;;0.00;0.00;;;18.10;91.40;;;;;;4015214;29;20072;-59
2022/10/23 09:59:31;;;;;;;0.73;0.73;;;18.10;91.40;;;;;;4029419;29;20064;-59
2022/10/23 10:02:28;;;;;;;0.00;0.00;;;18.20;91.30;;;;;;4033176;29;20521;-58
2022/10/23 10:05:32;;;;;;;0.00;0.00;;;18.30;91.20;;;;;;4033335;29;20120;-59
2022/10/23 10:08:23;;;;;;;0.00;0.00;;;18.30;91.10;;;;;;4026734;29;20060;-59
2022/10/23 10:11:11;;;;;;;0.00;0.00;;;18.30;91.50;;;;;;4017974;29;20060;-59
2022/10/23 10:14:18;;;;;;;0.25;0.25;;;18.30;91.10;;;;;;4018417;29;20060;-59
2022/10/23 10:17:05;;;;;;;0.00;0.00;;;18.20;91.20;;;;;;4018328;29;20061;-59
2022/10/23 10:20:02;;;;;;;0.00;0.00;;;18.20;91.30;;;;;;4031054;29;20428;-59
2022/10/23 10:22:52;;;;;;;1.10;0.55;;;18.10;91.30;;;;;;4025622;29;20518;-59
2022/10/23 10:25:39;;;;;;;0.05;0.05;;;18.10;91.40;;;;;;4018352;29;20413;-59
2022/10/23 10:28:31;;;;;;;0.00;0.00;;;18.00;91.50;;;;;;4032979;29;20064;-58
2022/10/23 10:31:19;;;;;;;0.00;0.00;;;18.00;91.60;;;;;;4032546;29;20113;-60
2022/10/23 10:34:12;;;;;;;0.00;0.00;;;18.00;91.80;;;;;;4033036;29;20513;-59
2022/10/23 10:36:57;;;;;;;0.00;0.00;;;17.90;91.90;;;;;;4021792;29;20055;-59
2022/10/23 10:39:46;;;;;;;0.15;0.15;;;17.90;92.00;;;;;;4021915;29;20139;-60
2022/10/23 10:42:48;;;;;;;0.00;0.00;;;17.90;92.10;;;;;;4033089;29;20209;-59
2022/10/23 10:45:33;;;;;;;0.20;0.20;;;17.90;92.10;;;;;;4033239;29;20119;-62
2022/10/23 10:48:25;;;;;;;0.00;0.00;;;18.00;92.10;;;;;;4033227;29;20072;-60
2022/10/23 10:51:30;;;;;;;0.00;0.00;;;18.00;91.90;;;;;;4033093;29;20389;-61
2022/10/23 10:54:22;;;;;;;0.05;0.05;;;18.10;92.00;;;;;;4017902;29;20048;-60
2022/10/23 10:57:13;;;;;;;0.00;0.00;;;18.10;91.90;;;;;;4006157;29;20080;-61
2022/10/23 10:59:57;;;;;;;0.00;0.00;;;18.10;92.10;;;;;;4017707;29;20433;-60
2022/10/23 11:02:42;;;;;;;0.00;0.00;;;18.10;92.00;;;;;;4017227;29;20198;-61
2022/10/23 11:05:30;;;;;;;0.00;0.00;;;18.10;92.00;;;;;;4017640;29;20587;-60
2022/10/23 11:08:16;;;;;;;0.75;0.75;;;18.10;92.10;;;;;;4025776;29;20104;-61
2022/10/23 11:11:03;;;;;;;0.00;0.00;;;18.00;92.10;;;;;;4031590;29;20056;-60
2022/10/23 11:13:46;;;;;;;0.00;0.00;;;18.00;92.20;;;;;;4033046;29;20884;-60
2022/10/23 11:16:31;;;;;;;0.00;0.00;;;18.00;92.30;;;;;;4010358;29;20181;-60
2022/10/23 11:19:18;;;;;;;0.15;0.15;;;18.00;92.60;;;;;;4032695;29;20060;-61
2022/10/23 11:22:06;;;;;;;0.10;0.10;;;17.90;92.60;;;;;;4032592;29;20089;-60
2022/10/23 11:25:17;;;;;;;0.00;0.00;;;17.90;92.60;;;;;;4012606;29;20501;-59
2022/10/23 11:28:18;;;;;;;0.00;0.00;;;17.90;92.70;;;;;;4032232;29;20051;-59
2022/10/23 11:31:14;;;;;;;0.00;0.00;;;17.80;92.70;;;;;;3992066;29;20145;-59
2022/10/23 11:34:23;;;;;;;0.03;0.03;;;17.80;93.10;;;;;;4001871;29;20057;-59
2022/10/23 11:37:05;;;;;;;0.00;0.00;;;17.80;92.80;;;;;;4001027;29;20062;-59
2022/10/23 11:40:01;;;;;;;0.00;0.00;;;17.70;92.80;;;;;;4016942;29;20072;-59
2022/10/23 11:42:49;;;;;;;0.80;0.80;;;17.70;92.80;;;;;;4016653;29;20504;-60
2022/10/23 11:45:36;;;;;;;0.00;0.00;;;17.70;92.80;;;;;;4017056;29;20073;-60
2022/10/23 11:48:24;;;;;;;0.00;0.00;;;17.70;92.90;;;;;;4016969;29;20056;-59
2022/10/23 11:51:05;;;;;;;2.38;2.00;;;17.70;92.90;;;;;;4016928;29;20137;-59
2022/10/23 11:53:47;;;;;;;0.00;0.00;;;17.60;92.90;;;;;;3998154;29;20064;-60
2022/10/23 11:56:30;;;;;;;0.00;0.00;;;17.60;92.90;;;;;;4016919;29;20096;-60
2022/10/23 11:59:23;;;;;;;0.15;0.15;;;17.60;93.00;;;;;;4017068;29;20350;-60
2022/10/23 12:02:24;;;;;;;0.57;0.57;;;17.60;93.10;;;;;;4016756;29;20063;-60
2022/10/23 12:05:09;;;;;;;0.00;0.00;;;17.60;93.20;;;;;;4031644;29;21006;-60
2022/10/23 12:07:55;;;;;;;0.00;0.00;;;17.50;93.10;;;;;;4018236;29;20163;-60
2022/10/23 12:10:45;;;;;;;0.00;0.00;;;17.50;93.20;;;;;;4016770;29;20518;-59
2022/10/23 12:13:45;;;;;;;0.00;0.00;;;17.50;93.20;;;;;;4016969;29;20413;-59
2022/10/23 12:16:35;;;;;;;0.10;0.10;;;17.50;93.20;;;;;;4016042;29;20167;-59
2022/10/23 12:19:21;;;;;;;0.10;0.10;;;17.50;93.20;;;;;;4020398;29;20135;-59
2022/10/23 12:22:03;;;;;;;0.20;0.20;;;17.50;93.20;;;;;;4031183;29;20516;-60
2022/10/23 12:24:57;;;;;;;1.52;1.30;;;17.50;93.30;;;;;;4019813;29;20075;-59
2022/10/23 12:27:43;;;;;;;0.00;0.00;;;17.40;93.40;;;;;;4030314;29;20080;-59
2022/10/23 12:30:30;;;;;;;0.00;0.00;;;17.50;93.40;;;;;;4031768;29;20056;-59
2022/10/23 12:33:25;;;;;;;0.00;0.00;;;17.60;93.30;;;;;;4031476;29;20061;-59
2022/10/23 12:36:21;;;;;;;0.00;0.00;;;17.60;93.20;;;;;;4015220;29;20052;-60
2022/10/23 12:39:03;;;;;;;0.28;0.28;;;17.60;93.10;;;;;;4016415;29;20125;-59
2022/10/23 12:41:45;;;;;;;0.00;0.00;;;17.60;93.10;;;;;;4005386;29;20075;-60
2022/10/23 12:44:26;;;;;;;0.00;0.00;;;17.60;93.00;;;;;;4033103;29;20072;-60
2022/10/23 12:47:18;;;;;;;0.00;0.00;;;17.70;93.10;;;;;;4026220;29;20055;-61
2022/10/23 12:49:58;;;;;;;0.00;0.00;;;17.70;93.20;;;;;;4036256;29;20819;-61
2022/10/23 12:52:39;;;;;;;0.43;0.43;;;17.60;93.20;;;;;;4036454;29;20048;-60
2022/10/23 12:55:23;;;;;;;0.15;0.15;;;17.70;93.20;;;;;;4036550;29;20063;-61
2022/10/23 12:58:04;;;;;;;0.00;0.00;;;17.70;93.20;;;;;;4037336;29;20138;-60
2022/10/23 13:00:51;;;;;;;0.00;0.00;;;17.70;93.20;;;;;;4037334;29;20051;-61
2022/10/23 13:03:33;;;;;;;0.03;0.03;;;17.60;93.20;;;;;;4038182;29;20071;-61
2022/10/23 13:06:14;;;;;;;0.00;0.00;;;17.60;93.20;;;;;;4036406;29;20063;-61
2022/10/23 13:08:55;;;;;;;0.00;0.00;;;17.60;93.20;;;;;;4036982;29;20064;-61
2022/10/23 13:11:44;;;;;;;0.00;0.00;;;17.60;93.20;;;;;;4038250;29;20071;-61
2022/10/23 13:14:33;;;;;;;3.13;0.80;;;17.60;93.20;;;;;;4024789;29;20055;-61
2022/10/23 13:17:13;;;;;;;0.80;0.80;;;17.60;93.30;;;;;;4036845;29;20056;-61
2022/10/23 13:19:54;;;;;;;0.00;0.00;;;17.60;93.30;;;;;;4038559;29;20052;-61
2022/10/23 13:22:35;;;;;;;0.00;0.00;;;17.60;93.20;;;;;;4037001;29;20063;-60
2022/10/23 13:25:24;;;;;;;0.00;0.00;;;17.60;93.20;;;;;;4029111;29;20136;-60
2022/10/23 13:28:15;;;;;;;0.00;0.00;;;17.60;93.30;;;;;;4021938;29;20190;-60
2022/10/23 13:31:23;;;;;;;0.00;0.00;;;17.60;93.30;;;;;;4035831;29;20060;-61
2022/10/23 13:34:23;;;;;;;0.20;0.20;;;17.60;93.40;;;;;;4025623;29;20056;-61
2022/10/23 13:37:25;;;;;;;0.00;0.00;;;17.60;93.60;;;;;;4022462;29;20373;-60
2022/10/23 13:40:19;;;;;;;0.00;0.00;;;17.50;93.70;;;;;;4034179;29;20190;-60
2022/10/23 13:43:00;;;;;;;0.00;0.00;;;17.60;93.80;;;;;;4037768;29;20059;-61
2022/10/23 13:45:42;;;;;;;0.05;0.05;;;17.60;94.00;;;;;;4039848;29;20161;-61
2022/10/23 13:48:23;;;;;;;0.00;0.00;;;17.60;93.90;;;;;;4047763;29;20064;-61
2022/10/23 13:51:12;;;;;;;0.00;0.00;;;17.60;93.80;;;;;;4049339;29;20132;-61
2022/10/23 13:53:53;;;;;;;0.00;0.00;;;17.70;93.70;;;;;;4049178;29;20048;-61
2022/10/23 13:56:34;;;;;;;0.00;0.00;;;17.80;93.60;;;;;;4049421;29;20063;-61
2022/10/23 13:59:15;;;;;;;0.00;0.00;;;17.80;93.50;;;;;;4038183;29;20080;-61
2022/10/23 14:01:57;;;;;;;0.00;0.00;;;17.80;93.40;;;;;;4033781;29;20151;-61
2022/10/23 14:04:38;;;;;;;0.00;0.00;;;17.80;93.30;;;;;;4039338;29;20095;-61
2022/10/23 14:07:19;;;;;;;0.15;0.15;;;17.80;93.20;;;;;;4039969;29;20059;-61
2022/10/23 14:10:00;;;;;;;0.00;0.00;;;17.90;93.30;;;;;;4038282;29;20449;-61
2022/10/23 14:12:41;;;;;;;0.60;0.60;;;17.80;93.20;;;;;;4038046;29;20059;-61
2022/10/23 14:15:23;;;;;;;0.20;0.20;;;17.80;93.60;;;;;;4037955;29;20055;-61
2022/10/23 14:18:05;;;;;;;0.00;0.00;;;17.80;93.30;;;;;;4038719;29;20484;-61
2022/10/23 14:20:48;;;;;;;0.05;0.05;;;17.80;93.30;;;;;;4018068;29;20137;-60
2022/10/23 14:23:28;;;;;;;0.00;0.00;;;17.80;93.40;;;;;;4017651;29;20053;-62
2022/10/23 14:26:11;;;;;;;0.00;0.00;;;17.80;93.40;;;;;;4017680;29;20052;-61
2022/10/23 14:28:53;;;;;;;0.52;0.52;;;17.80;93.30;;;;;;4034148;29;20055;-61